Time;durP1;ratioP1;P1;durP2;ratioP2;P2;SDS_P1;SDS_P2;PMS_P1;PMS_P2;Temp;Humidity;BMP_temperature;BMP_pressure;BME280_temperature;BME280_humidity;BME280_pressure;Samples;Min_cycle;Max_cycle;Signal;HPM_P1;HPM_P2
2022/12/03 09:16:54;;;;;;;;;14.00;11.33;;;;;;;;5103782;27;13379;-65
2022/12/03 09:19:23;;;;;;;;;11.00;7.25;;;;;;;;5086859;28;11529;-68
2022/12/03 09:21:48;;;;;;;;;11.00;10.25;;;;;;;;5089328;28;8914;-70
2022/12/03 09:24:14;;;;;;;;;11.00;9.50;;;;;;;;5088599;28;11480;-71
2022/12/03 09:26:39;;;;;;;;;12.00;8.50;;;;;;;;5084791;28;8804;-69
2022/12/03 09:29:04;;;;;;;;;10.50;7.75;;;;;;;;5084622;28;8827;-72
2022/12/03 09:31:31;;;;;;;;;13.75;11.00;;;;;;;;5085920;28;8797;-73
2022/12/03 09:33:57;;;;;;;;;12.50;8.25;;;;;;;;5088319;28;9538;-71
2022/12/03 09:36:22;;;;;;;;;11.25;9.00;;;;;;;;5086920;28;11453;-71
2022/12/03 09:38:47;;;;;;;;;7.25;7.25;;;;;;;;5084449;28;8834;-72
2022/12/03 09:41:12;;;;;;;;;12.50;8.25;;;;;;;;5086122;28;8788;-71
2022/12/03 09:43:38;;;;;;;;;12.00;12.00;;;;;;;;5085892;28;8792;-69
2022/12/03 09:46:04;;;;;;;;;14.75;13.50;;;;;;;;5085656;28;8962;-73
2022/12/03 09:48:29;;;;;;;;;13.00;10.75;;;;;;;;5085982;28;9534;-69
2022/12/03 09:50:55;;;;;;;;;14.25;14.25;;;;;;;;5084521;28;11495;-69
2022/12/03 09:53:24;;;;;;;;;16.50;12.50;;;;;;;;5102154;28;8836;-69
2022/12/03 09:55:50;;;;;;;;;12.50;12.00;;;;;;;;5105988;28;8817;-69
2022/12/03 09:58:21;;;;;;;;;13.50;11.00;;;;;;;;5105969;28;11457;-68
2022/12/03 10:00:49;;;;;;;;;12.00;10.50;;;;;;;;5097952;28;11466;-71
2022/12/03 10:03:15;;;;;;;;;13.00;12.50;;;;;;;;5085138;28;11451;-69
2022/12/03 10:05:40;;;;;;;;;16.50;14.75;;;;;;;;5084833;28;11544;-72
2022/12/03 10:08:07;;;;;;;;;11.75;11.25;;;;;;;;5085304;28;11406;-67
2022/12/03 10:10:33;;;;;;;;;11.75;10.50;;;;;;;;5066950;28;8808;-67
2022/12/03 10:12:58;;;;;;;;;12.75;9.50;;;;;;;;5085236;28;11398;-67
2022/12/03 10:15:24;;;;;;;;;14.50;12.25;;;;;;;;5084983;28;8845;-67
2022/12/03 10:17:51;;;;;;;;;18.50;13.25;;;;;;;;5085759;28;8889;-67
2022/12/03 10:20:18;;;;;;;;;12.00;12.00;;;;;;;;5085679;28;8789;-68
2022/12/03 10:22:44;;;;;;;;;17.50;16.25;;;;;;;;5096334;28;11462;-68
2022/12/03 10:25:11;;;;;;;;;17.00;12.25;;;;;;;;5105651;28;11568;-67
2022/12/03 10:27:37;;;;;;;;;14.50;12.50;;;;;;;;5094515;28;8790;-68
2022/12/03 10:30:12;;;;;;;;;12.25;9.00;;;;;;;;5073994;28;11511;-68
2022/12/03 10:32:39;;;;;;;;;13.00;12.00;;;;;;;;5052147;28;8778;-68
2022/12/03 10:35:06;;;;;;;;;18.00;15.00;;;;;;;;5033377;28;11507;-67
2022/12/03 10:37:31;;;;;;;;;17.00;15.00;;;;;;;;5052048;28;11476;-69
2022/12/03 10:39:57;;;;;;;;;18.25;15.25;;;;;;;;5051976;28;11476;-68
2022/12/03 10:42:23;;;;;;;;;7.50;3.75;;;;;;;;5051889;28;9559;-69
2022/12/03 10:45:05;;;;;;;;;12.25;12.25;;;;;;;;5051845;28;8795;-67
2022/12/03 10:47:30;;;;;;;;;21.00;14.75;;;;;;;;5051686;28;11552;-68
2022/12/03 10:50:01;;;;;;;;;16.00;14.50;;;;;;;;5051305;28;11458;-69
2022/12/03 10:52:26;;;;;;;;;18.00;15.50;;;;;;;;5068517;28;8778;-65
2022/12/03 10:54:51;;;;;;;;;14.75;14.00;;;;;;;;5091728;28;11562;-67
2022/12/03 10:57:16;;;;;;;;;18.75;15.75;;;;;;;;5091795;28;8767;-67
2022/12/03 10:59:44;;;;;;;;;21.50;15.75;;;;;;;;5091848;28;8802;-67
2022/12/03 11:02:17;;;;;;;;;16.50;15.25;;;;;;;;5075187;28;8792;-67
2022/12/03 11:04:43;;;;;;;;;19.75;17.75;;;;;;;;5071426;28;11462;-67
2022/12/03 11:07:13;;;;;;;;;14.75;12.75;;;;;;;;5071423;28;11506;-67
2022/12/03 11:09:38;;;;;;;;;15.25;11.00;;;;;;;;5065510;28;9549;-67
2022/12/03 11:12:04;;;;;;;;;12.00;9.00;;;;;;;;5056915;28;11466;-66
2022/12/03 11:14:55;;;;;;;;;16.00;15.00;;;;;;;;5050892;28;8794;-69
2022/12/03 11:17:39;;;;;;;;;23.50;14.50;;;;;;;;5051393;28;11512;-70
2022/12/03 11:20:04;;;;;;;;;12.25;10.50;;;;;;;;5051617;28;12300;-70
2022/12/03 11:22:56;;;;;;;;;1.00;0.00;;;;;;;;5068135;28;11532;-71
2022/12/03 11:25:24;;;;;;;;;5.50;5.50;;;;;;;;5087077;28;8806;-70
2022/12/03 11:28:08;;;;;;;;;2.00;2.00;;;;;;;;5091013;28;12536;-69
2022/12/03 11:31:01;;;;;;;;;4.25;4.00;;;;;;;;5076291;28;11453;-68
2022/12/03 11:33:33;;;;;;;;;1.50;1.50;;;;;;;;5065573;28;11440;-67
2022/12/03 11:36:02;;;;;;;;;1.00;1.00;;;;;;;;5053025;28;11435;-68
2022/12/03 11:38:36;;;;;;;;;1.25;1.25;;;;;;;;5068588;28;11569;-68
2022/12/03 11:41:11;;;;;;;;;0.50;0.50;;;;;;;;5059126;28;11495;-68
2022/12/03 11:43:52;;;;;;;;;0.00;0.00;;;;;;;;5050657;28;11438;-68
2022/12/03 11:46:19;;;;;;;;;2.50;1.00;;;;;;;;5066627;28;11461;-67
2022/12/03 11:48:48;;;;;;;;;0.25;0.00;;;;;;;;5082517;28;11411;-68
2022/12/03 11:51:14;;;;;;;;;1.50;1.00;;;;;;;;5092242;28;11518;-69
2022/12/03 11:53:40;;;;;;;;;1.25;1.00;;;;;;;;5072216;28;11426;-69
2022/12/03 11:56:07;;;;;;;;;0.75;0.75;;;;;;;;5069391;28;11463;-68
2022/12/03 11:58:34;;;;;;;;;1.25;1.25;;;;;;;;5080688;28;8810;-69
2022/12/03 12:01:00;;;;;;;;;0.75;0.75;;;;;;;;5083760;28;11548;-69
2022/12/03 12:03:27;;;;;;;;;0.00;0.00;;;;;;;;5070610;28;12199;-68
2022/12/03 12:06:01;;;;;;;;;0.50;0.50;;;;;;;;5069052;28;11419;-69
2022/12/03 12:08:26;;;;;;;;;1.50;0.50;;;;;;;;5070115;28;11459;-69
2022/12/03 12:10:51;;;;;;;;;2.00;1.00;;;;;;;;5051646;28;12190;-68
2022/12/03 12:13:46;;;;;;;;;1.00;1.00;;;;;;;;5069839;28;8899;-68
2022/12/03 12:16:11;;;;;;;;;1.00;0.00;;;;;;;;5055189;28;9492;-69
2022/12/03 12:18:41;;;;;;;;;1.00;1.00;;;;;;;;5069730;28;11573;-69
2022/12/03 12:21:25;;;;;;;;;1.50;0.25;;;;;;;;5069979;28;8896;-68
2022/12/03 12:23:50;;;;;;;;;1.00;1.00;;;;;;;;5089875;28;11427;-69
2022/12/03 12:26:15;;;;;;;;;1.00;1.00;;;;;;;;5071578;28;11419;-69
2022/12/03 12:28:41;;;;;;;;;3.75;2.00;;;;;;;;5080184;28;8903;-68
2022/12/03 12:31:09;;;;;;;;;1.00;1.00;;;;;;;;5063921;28;8827;-69
2022/12/03 12:33:35;;;;;;;;;1.00;1.00;;;;;;;;5069720;28;8796;-68
2022/12/03 12:36:04;;;;;;;;;1.50;1.00;;;;;;;;5053822;28;11517;-68
2022/12/03 12:38:29;;;;;;;;;2.00;1.00;;;;;;;;5058466;28;8831;-73
2022/12/03 12:40:55;;;;;;;;;1.00;1.00;;;;;;;;5069138;28;11409;-75
2022/12/03 12:43:21;;;;;;;;;4.00;1.75;;;;;;;;5069511;28;8876;-74
2022/12/03 12:45:46;;;;;;;;;5.00;5.00;;;;;;;;5068216;28;8974;-74
2022/12/03 12:48:14;;;;;;;;;6.00;6.00;;;;;;;;5051348;28;8850;-72
2022/12/03 12:50:41;;;;;;;;;2.00;2.00;;;;;;;;5069127;28;8895;-74
2022/12/03 12:53:15;;;;;;;;;2.00;2.00;;;;;;;;5083103;28;11416;-72
2022/12/03 12:55:40;;;;;;;;;2.00;2.00;;;;;;;;5068323;28;11498;-68
2022/12/03 12:58:16;;;;;;;;;1.75;1.75;;;;;;;;5088884;28;11413;-71
2022/12/03 13:00:41;;;;;;;;;3.50;1.75;;;;;;;;5084885;28;8824;-71
2022/12/03 13:03:07;;;;;;;;;2.00;2.00;;;;;;;;5056171;28;11464;-72
2022/12/03 13:05:37;;;;;;;;;3.00;1.00;;;;;;;;5067967;28;8812;-68
2022/12/03 13:08:15;;;;;;;;;1.00;1.00;;;;;;;;5069308;28;9574;-69
2022/12/03 13:10:41;;;;;;;;;1.00;1.00;;;;;;;;5068968;28;11499;-66
2022/12/03 13:13:12;;;;;;;;;1.00;1.00;;;;;;;;5068785;28;11410;-67
2022/12/03 13:15:43;;;;;;;;;1.00;1.00;;;;;;;;5069324;28;8812;-68
2022/12/03 13:18:17;;;;;;;;;1.00;1.00;;;;;;;;5068818;28;11450;-67
2022/12/03 13:20:43;;;;;;;;;2.00;1.00;;;;;;;;5068716;28;11407;-66
2022/12/03 13:23:23;;;;;;;;;1.00;1.00;;;;;;;;5052802;28;11456;-66
2022/12/03 13:25:50;;;;;;;;;3.00;1.75;;;;;;;;5066196;28;8784;-68
2022/12/03 13:28:16;;;;;;;;;1.25;0.75;;;;;;;;5050279;28;11454;-68
2022/12/03 13:30:41;;;;;;;;;1.00;0.00;;;;;;;;5064657;28;11446;-67
2022/12/03 13:33:24;;;;;;;;;1.00;1.00;;;;;;;;5049171;28;8783;-68
2022/12/03 13:35:51;;;;;;;;;1.75;0.75;;;;;;;;5049015;28;8818;-67
2022/12/03 13:38:18;;;;;;;;;2.50;1.25;;;;;;;;5048846;28;11418;-66
2022/12/03 13:40:43;;;;;;;;;1.00;1.00;;;;;;;;5048428;28;11407;-68
2022/12/03 13:43:13;;;;;;;;;2.00;2.00;;;;;;;;5049543;28;12208;-67
2022/12/03 13:45:40;;;;;;;;;1.00;1.00;;;;;;;;5062615;28;9542;-67
2022/12/03 13:48:25;;;;;;;;;1.25;1.00;;;;;;;;5038420;28;11445;-67
2022/12/03 13:50:51;;;;;;;;;1.50;0.00;;;;;;;;5036575;28;11452;-67
2022/12/03 13:53:21;;;;;;;;;6.00;5.00;;;;;;;;5066952;28;11418;-69
2022/12/03 13:55:48;;;;;;;;;6.00;4.00;;;;;;;;5068421;28;11479;-70
2022/12/03 13:58:13;;;;;;;;;0.00;0.00;;;;;;;;5068517;28;11443;-69
2022/12/03 14:00:39;;;;;;;;;1.00;1.00;;;;;;;;5064732;28;11446;-69
2022/12/03 14:03:04;;;;;;;;;1.00;1.00;;;;;;;;5051722;28;8770;-67
2022/12/03 14:05:29;;;;;;;;;2.00;1.00;;;;;;;;5052734;28;9567;-70
2022/12/03 14:08:00;;;;;;;;;0.00;0.00;;;;;;;;5054674;28;8806;-69
2022/12/03 14:10:26;;;;;;;;;1.00;1.00;;;;;;;;5052303;28;8813;-69
2022/12/03 14:12:51;;;;;;;;;0.00;0.00;;;;;;;;5064198;28;11436;-69
2022/12/03 14:15:16;;;;;;;;;0.50;0.50;;;;;;;;5071691;28;8840;-69
2022/12/03 14:17:42;;;;;;;;;0.50;0.00;;;;;;;;5061514;28;9637;-69
2022/12/03 14:20:07;;;;;;;;;1.75;0.50;;;;;;;;5052365;28;8783;-69
2022/12/03 14:22:36;;;;;;;;;1.00;0.75;;;;;;;;5070801;28;9548;-69
2022/12/03 14:25:02;;;;;;;;;0.25;0.25;;;;;;;;5071262;28;8851;-69
2022/12/03 14:27:27;;;;;;;;;4.50;0.50;;;;;;;;5057904;28;11531;-69
2022/12/03 14:29:53;;;;;;;;;2.00;1.00;;;;;;;;5060443;28;8818;-67
2022/12/03 14:32:18;;;;;;;;;1.00;1.00;;;;;;;;5049635;28;8856;-68
2022/12/03 14:34:43;;;;;;;;;0.75;0.75;;;;;;;;5031940;28;8861;-68
2022/12/03 14:37:14;;;;;;;;;4.00;1.00;;;;;;;;5051530;28;8790;-69
2022/12/03 14:39:40;;;;;;;;;0.00;0.00;;;;;;;;5033239;28;8802;-69
2022/12/03 14:42:15;;;;;;;;;0.00;0.00;;;;;;;;5033018;28;11512;-70
2022/12/03 14:44:41;;;;;;;;;1.50;0.00;;;;;;;;5062817;28;8928;-74
2022/12/03 14:47:07;;;;;;;;;0.25;0.00;;;;;;;;5069756;28;11557;-72
2022/12/03 14:49:32;;;;;;;;;1.25;1.00;;;;;;;;5070948;28;11387;-72
2022/12/03 14:51:57;;;;;;;;;1.00;0.00;;;;;;;;5075758;28;9528;-68
2022/12/03 14:54:23;;;;;;;;;1.00;1.00;;;;;;;;5091202;28;8789;-68
2022/12/03 14:56:48;;;;;;;;;2.75;0.75;;;;;;;;5091532;28;9531;-68
2022/12/03 14:59:14;;;;;;;;;4.00;4.00;;;;;;;;5091334;28;8885;-67
2022/12/03 15:01:39;;;;;;;;;4.25;1.00;;;;;;;;5079040;28;8804;-69
2022/12/03 15:04:05;;;;;;;;;1.00;1.00;;;;;;;;5071199;28;8819;-67
2022/12/03 15:06:30;;;;;;;;;2.00;2.00;;;;;;;;5071363;28;8808;-71
2022/12/03 15:08:55;;;;;;;;;3.25;3.00;;;;;;;;5071135;28;8788;-69
2022/12/03 15:11:21;;;;;;;;;2.00;2.00;;;;;;;;5069362;28;8845;-66
2022/12/03 15:13:46;;;;;;;;;1.25;1.00;;;;;;;;5061082;28;8806;-66
2022/12/03 15:16:11;;;;;;;;;2.50;1.00;;;;;;;;5051023;28;8822;-67
2022/12/03 15:18:36;;;;;;;;;1.00;1.00;;;;;;;;5051316;28;8766;-66
2022/12/03 15:21:02;;;;;;;;;4.00;2.00;;;;;;;;5050791;28;8921;-79
2022/12/03 15:23:27;;;;;;;;;3.50;2.00;;;;;;;;5082620;28;8837;-67
2022/12/03 15:25:52;;;;;;;;;2.00;2.00;;;;;;;;5088629;28;8832;-67
2022/12/03 15:28:18;;;;;;;;;4.00;1.00;;;;;;;;5089307;28;8889;-68
2022/12/03 15:30:43;;;;;;;;;5.25;4.00;;;;;;;;5084575;28;8816;-67
2022/12/03 15:33:08;;;;;;;;;4.00;2.00;;;;;;;;5050775;28;8795;-68
2022/12/03 15:35:36;;;;;;;;;2.75;2.00;;;;;;;;5069125;28;8843;-69
2022/12/03 15:38:02;;;;;;;;;2.00;2.00;;;;;;;;5069070;28;8819;-69
2022/12/03 15:40:27;;;;;;;;;4.00;3.50;;;;;;;;5068632;28;11431;-68
2022/12/03 15:42:53;;;;;;;;;3.50;2.00;;;;;;;;5068984;28;9004;-68
2022/12/03 15:45:18;;;;;;;;;3.50;2.00;;;;;;;;5068837;28;8813;-67
2022/12/03 15:47:44;;;;;;;;;1.00;1.00;;;;;;;;5068469;28;8828;-71
2022/12/03 15:50:09;;;;;;;;;2.00;2.00;;;;;;;;5050436;28;8874;-71
2022/12/03 15:52:34;;;;;;;;;4.00;4.00;;;;;;;;5068438;28;8904;-69
2022/12/03 15:55:00;;;;;;;;;5.25;3.00;;;;;;;;5067204;28;8835;-70
2022/12/03 15:57:25;;;;;;;;;3.00;3.00;;;;;;;;5068985;28;9582;-69
2022/12/03 15:59:51;;;;;;;;;4.50;4.00;;;;;;;;5050446;28;8831;-71
2022/12/03 16:02:17;;;;;;;;;4.00;4.00;;;;;;;;5067839;28;8791;-68
2022/12/03 16:04:43;;;;;;;;;4.00;4.00;;;;;;;;5052004;28;9555;-69
2022/12/03 16:07:08;;;;;;;;;3.00;3.00;;;;;;;;5070042;28;11468;-68
2022/12/03 16:09:33;;;;;;;;;6.00;4.00;;;;;;;;5069423;28;9528;-68
2022/12/03 16:11:58;;;;;;;;;8.00;7.50;;;;;;;;5072223;28;8809;-68
2022/12/03 16:14:24;;;;;;;;;5.00;5.00;;;;;;;;5072337;28;8770;-68
2022/12/03 16:16:49;;;;;;;;;9.25;9.00;;;;;;;;5070911;28;8814;-68
2022/12/03 16:19:14;;;;;;;;;12.00;10.00;;;;;;;;5070783;28;8765;-67
2022/12/03 16:21:39;;;;;;;;;10.00;9.00;;;;;;;;5072258;28;8780;-68
2022/12/03 16:24:05;;;;;;;;;15.00;9.50;;;;;;;;5090168;28;8786;-67
2022/12/03 16:26:30;;;;;;;;;10.50;10.50;;;;;;;;5090259;28;8806;-67
2022/12/03 16:28:56;;;;;;;;;12.75;11.50;;;;;;;;5089734;28;8797;-68
2022/12/03 16:31:21;;;;;;;;;12.00;9.75;;;;;;;;5079768;28;8816;-69
2022/12/03 16:33:46;;;;;;;;;11.00;9.50;;;;;;;;5069913;28;8785;-68
2022/12/03 16:36:12;;;;;;;;;9.50;9.50;;;;;;;;5069741;28;8804;-68
2022/12/03 16:38:37;;;;;;;;;6.00;6.00;;;;;;;;5069416;28;8777;-69
2022/12/03 16:41:02;;;;;;;;;6.00;6.00;;;;;;;;5069407;28;8911;-67
2022/12/03 16:43:28;;;;;;;;;11.50;9.00;;;;;;;;5069030;28;8945;-68
2022/12/03 16:46:19;;;;;;;;;9.00;8.00;;;;;;;;5069241;28;8800;-68
2022/12/03 16:48:45;;;;;;;;;4.00;4.00;;;;;;;;5050943;28;8839;-67
2022/12/03 16:51:10;;;;;;;;;10.25;9.00;;;;;;;;5069103;28;11584;-67
2022/12/03 16:53:36;;;;;;;;;9.75;8.25;;;;;;;;5087258;28;8795;-69
2022/12/03 16:56:01;;;;;;;;;8.75;8.00;;;;;;;;5089537;28;9564;-68
2022/12/03 16:58:26;;;;;;;;;9.00;9.00;;;;;;;;5089193;28;8802;-68
2022/12/03 17:00:53;;;;;;;;;7.75;6.00;;;;;;;;5083651;28;8922;-68
2022/12/03 17:03:19;;;;;;;;;5.75;4.00;;;;;;;;5068731;28;8870;-68
2022/12/03 17:05:44;;;;;;;;;10.50;9.25;;;;;;;;5068963;28;11429;-68
2022/12/03 17:08:10;;;;;;;;;12.75;10.50;;;;;;;;5069129;28;8780;-67
2022/12/03 17:10:35;;;;;;;;;12.00;10.50;;;;;;;;5069021;28;8788;-67
2022/12/03 17:13:00;;;;;;;;;13.25;12.00;;;;;;;;5068701;28;8938;-71
2022/12/03 17:15:25;;;;;;;;;12.75;10.00;;;;;;;;5068518;28;8959;-68
2022/12/03 17:17:51;;;;;;;;;13.50;11.00;;;;;;;;5067708;28;8812;-68
2022/12/03 17:20:16;;;;;;;;;13.00;12.00;;;;;;;;5069021;28;8788;-68
2022/12/03 17:22:42;;;;;;;;;19.50;17.00;;;;;;;;5079155;28;8790;-67
2022/12/03 17:25:08;;;;;;;;;3.00;0.75;;;;;;;;5070788;28;8818;-69
2022/12/03 17:27:33;;;;;;;;;13.75;13.75;;;;;;;;5088863;28;8801;-69
2022/12/03 17:29:59;;;;;;;;;15.50;13.00;;;;;;;;5072217;28;8836;-67
2022/12/03 17:32:24;;;;;;;;;13.75;13.75;;;;;;;;5044252;28;8854;-67
2022/12/03 17:34:49;;;;;;;;;15.00;13.25;;;;;;;;5066943;28;8837;-68
2022/12/03 17:37:14;;;;;;;;;16.50;15.00;;;;;;;;5068928;28;8781;-67
2022/12/03 17:39:40;;;;;;;;;13.25;12.00;;;;;;;;5071022;28;8812;-67
2022/12/03 17:42:05;;;;;;;;;17.25;13.75;;;;;;;;5071339;28;8785;-66
2022/12/03 17:44:30;;;;;;;;;16.25;14.00;;;;;;;;5070848;28;8812;-67
2022/12/03 17:46:56;;;;;;;;;11.75;11.50;;;;;;;;5070934;28;8924;-68
2022/12/03 17:49:21;;;;;;;;;16.50;12.00;;;;;;;;5070932;28;8802;-68
2022/12/03 17:51:46;;;;;;;;;15.50;12.75;;;;;;;;5071816;28;8789;-67
2022/12/03 17:54:12;;;;;;;;;11.50;10.50;;;;;;;;5052735;28;8916;-68
2022/12/03 17:56:38;;;;;;;;;15.00;12.25;;;;;;;;5070944;28;8844;-68
2022/12/03 17:59:03;;;;;;;;;15.75;13.00;;;;;;;;5070458;28;8800;-69
2022/12/03 18:01:29;;;;;;;;;17.00;14.00;;;;;;;;5070822;28;8778;-69
2022/12/03 18:03:54;;;;;;;;;15.75;12.25;;;;;;;;5070739;28;8790;-68
2022/12/03 18:06:19;;;;;;;;;16.75;16.75;;;;;;;;5070771;28;8936;-69
2022/12/03 18:08:45;;;;;;;;;20.00;18.00;;;;;;;;5070856;28;8805;-70
2022/12/03 18:11:10;;;;;;;;;24.50;20.00;;;;;;;;5070499;28;8800;-72
2022/12/03 18:13:36;;;;;;;;;16.00;16.00;;;;;;;;5062804;28;8816;-70
2022/12/03 18:16:01;;;;;;;;;17.75;14.00;;;;;;;;5070189;28;8849;-76
2022/12/03 18:18:27;;;;;;;;;17.75;16.00;;;;;;;;5070498;28;9558;-69
2022/12/03 18:20:52;;;;;;;;;13.50;13.50;;;;;;;;5070480;28;8820;-68
2022/12/03 18:23:17;;;;;;;;;14.00;14.00;;;;;;;;5068449;28;8916;-72
2022/12/03 18:25:43;;;;;;;;;13.75;13.75;;;;;;;;5070716;28;8800;-69
2022/12/03 18:28:08;;;;;;;;;14.00;13.00;;;;;;;;5070037;28;9508;-68
2022/12/03 18:30:33;;;;;;;;;12.00;12.00;;;;;;;;5069318;28;8811;-71
2022/12/03 18:32:59;;;;;;;;;13.50;13.50;;;;;;;;5070131;28;8790;-68
2022/12/03 18:35:24;;;;;;;;;14.75;14.50;;;;;;;;5071797;28;8828;-71
2022/12/03 18:37:50;;;;;;;;;24.75;18.50;;;;;;;;5054923;28;8812;-69
2022/12/03 18:40:16;;;;;;;;;21.50;21.00;;;;;;;;5071541;28;9737;-68
2022/12/03 18:42:41;;;;;;;;;20.25;19.00;;;;;;;;5070131;28;9512;-70
2022/12/03 18:45:09;;;;;;;;;29.25;27.00;;;;;;;;5069559;28;11507;-71
2022/12/03 18:47:34;;;;;;;;;27.50;24.50;;;;;;;;5069457;28;9620;-68
2022/12/03 18:49:59;;;;;;;;;32.50;24.25;;;;;;;;5066620;28;11463;-69
2022/12/03 18:52:25;;;;;;;;;29.50;27.25;;;;;;;;5054657;28;8804;-70
2022/12/03 18:54:50;;;;;;;;;26.25;24.00;;;;;;;;5070647;28;8837;-70
2022/12/03 18:57:15;;;;;;;;;25.00;22.25;;;;;;;;5070774;28;8822;-70
2022/12/03 18:59:41;;;;;;;;;27.25;23.50;;;;;;;;5068806;28;8818;-70
2022/12/03 19:02:06;;;;;;;;;24.00;22.50;;;;;;;;5070601;28;8842;-66
2022/12/03 19:04:32;;;;;;;;;24.00;24.00;;;;;;;;5071355;28;8900;-68
2022/12/03 19:06:57;;;;;;;;;26.75;19.00;;;;;;;;5070649;28;8797;-70
2022/12/03 19:09:22;;;;;;;;;26.25;23.25;;;;;;;;5069346;28;8801;-72
2022/12/03 19:11:48;;;;;;;;;23.25;19.50;;;;;;;;5069673;28;8938;-73
2022/12/03 19:14:13;;;;;;;;;27.25;25.00;;;;;;;;5069290;28;8781;-72
2022/12/03 19:16:39;;;;;;;;;25.75;24.00;;;;;;;;5069677;28;8825;-71
2022/12/03 19:19:05;;;;;;;;;31.25;29.50;;;;;;;;5050111;28;8956;-71
2022/12/03 19:21:30;;;;;;;;;36.00;35.00;;;;;;;;5070007;28;8748;-71
2022/12/03 19:23:55;;;;;;;;;46.00;41.00;;;;;;;;5066499;28;12302;-71
2022/12/03 19:26:21;;;;;;;;;31.33;27.33;;;;;;;;5067157;28;8810;-70
2022/12/03 19:28:46;;;;;;;;;52.00;45.33;;;;;;;;5066828;28;8916;-69
2022/12/03 19:31:16;;;;;;;;;48.67;42.33;;;;;;;;5069233;28;8788;-70
2022/12/03 19:33:41;;;;;;;;;47.33;41.00;;;;;;;;5051316;28;8825;-70
2022/12/03 19:36:07;;;;;;;;;40.33;34.00;;;;;;;;5069146;28;8897;-70
2022/12/03 19:38:32;;;;;;;;;52.00;44.67;;;;;;;;5066691;28;8790;-71
2022/12/03 19:41:02;;;;;;;;;54.33;45.33;;;;;;;;5068695;28;8812;-70
2022/12/03 19:43:28;;;;;;;;;49.00;41.00;;;;;;;;5068913;28;8856;-69
2022/12/03 19:45:53;;;;;;;;;53.33;45.33;;;;;;;;5068754;28;8813;-71
2022/12/03 19:48:21;;;;;;;;;52.33;43.33;;;;;;;;5067885;28;8792;-70
2022/12/03 19:50:49;;;;;;;;;53.00;46.33;;;;;;;;5050997;28;8907;-71
2022/12/03 19:53:15;;;;;;;;;60.67;49.00;;;;;;;;5051192;28;8782;-73
2022/12/03 19:55:40;;;;;;;;;59.00;48.33;;;;;;;;5068573;28;8827;-70
2022/12/03 19:58:06;;;;;;;;;59.00;47.33;;;;;;;;5049795;28;8804;-71
2022/12/03 20:00:32;;;;;;;;;63.67;51.33;;;;;;;;5049451;28;8806;-70
2022/12/03 20:02:58;;;;;;;;;63.33;47.33;;;;;;;;5068461;28;8792;-69
2022/12/03 20:05:23;;;;;;;;;61.00;47.67;;;;;;;;5068513;28;8810;-70
2022/12/03 20:07:48;;;;;;;;;61.00;50.00;;;;;;;;5069734;28;9679;-68
2022/12/03 20:10:14;;;;;;;;;59.00;49.33;;;;;;;;5089873;28;8790;-67
2022/12/03 20:12:39;;;;;;;;;59.33;49.00;;;;;;;;5090243;28;8788;-67
2022/12/03 20:15:05;;;;;;;;;58.33;49.00;;;;;;;;5089572;28;9617;-67
2022/12/03 20:17:30;;;;;;;;;64.67;50.33;;;;;;;;5087050;28;8913;-66
2022/12/03 20:19:55;;;;;;;;;63.00;52.00;;;;;;;;5070022;28;8816;-67
2022/12/03 20:22:20;;;;;;;;;58.67;48.00;;;;;;;;5069407;28;8845;-67
2022/12/03 20:24:46;;;;;;;;;63.00;52.00;;;;;;;;5069542;28;8830;-67
2022/12/03 20:27:11;;;;;;;;;60.00;51.67;;;;;;;;5069537;28;8792;-66
2022/12/03 20:29:37;;;;;;;;;58.33;48.33;;;;;;;;5067833;28;8807;-65
2022/12/03 20:32:03;;;;;;;;;57.33;42.33;;;;;;;;5069660;28;8893;-65
2022/12/03 20:34:29;;;;;;;;;61.00;49.33;;;;;;;;5069578;28;8800;-68
2022/12/03 20:36:54;;;;;;;;;57.33;49.00;;;;;;;;5051624;28;8909;-66
2022/12/03 20:39:19;;;;;;;;;59.67;48.00;;;;;;;;5067061;28;8935;-68
2022/12/03 20:41:45;;;;;;;;;64.00;49.00;;;;;;;;5067972;28;8877;-68
2022/12/03 20:44:10;;;;;;;;;64.00;52.67;;;;;;;;5067220;28;8796;-67
2022/12/03 20:46:35;;;;;;;;;62.33;50.67;;;;;;;;5067957;28;8805;-67
2022/12/03 20:49:00;;;;;;;;;56.33;48.00;;;;;;;;5065762;28;8816;-71
2022/12/03 20:51:28;;;;;;;;;58.00;46.33;;;;;;;;5049626;28;8804;-69
2022/12/03 20:53:55;;;;;;;;;59.00;48.33;;;;;;;;5064867;28;8788;-68
2022/12/03 20:56:22;;;;;;;;;52.67;46.00;;;;;;;;5067819;28;8821;-68
2022/12/03 20:58:48;;;;;;;;;64.00;49.33;;;;;;;;5066222;28;8790;-68
2022/12/03 21:01:14;;;;;;;;;58.33;50.00;;;;;;;;5067221;28;8836;-69
2022/12/03 21:03:40;;;;;;;;;57.33;48.33;;;;;;;;5067628;28;8813;-67
2022/12/03 21:06:05;;;;;;;;;54.67;44.67;;;;;;;;5067308;28;8831;-68
2022/12/03 21:08:30;;;;;;;;;28.33;24.67;;;;;;;;5068365;28;9582;-68
2022/12/03 21:10:56;;;;;;;;;62.33;42.00;;;;;;;;5067087;28;8804;-69
2022/12/03 21:13:21;;;;;;;;;52.33;45.33;;;;;;;;5048826;28;8812;-67
2022/12/03 21:15:46;;;;;;;;;54.67;45.00;;;;;;;;5066185;28;8844;-67
2022/12/03 21:18:14;;;;;;;;;51.33;43.00;;;;;;;;5067658;28;8890;-68
2022/12/03 21:20:43;;;;;;;;;47.00;39.67;;;;;;;;5048759;28;8893;-69
2022/12/03 21:23:09;;;;;;;;;53.00;45.00;;;;;;;;5067513;28;8814;-67
2022/12/03 21:25:35;;;;;;;;;57.33;44.67;;;;;;;;5049218;28;8816;-68
2022/12/03 21:28:01;;;;;;;;;48.67;43.00;;;;;;;;5065787;28;8843;-69
2022/12/03 21:30:27;;;;;;;;;56.00;46.67;;;;;;;;5065178;28;8824;-69
2022/12/03 21:32:52;;;;;;;;;44.67;41.00;;;;;;;;5049080;28;9558;-68
2022/12/03 21:35:18;;;;;;;;;51.67;43.67;;;;;;;;5067128;28;8847;-67
2022/12/03 21:37:43;;;;;;;;;52.67;43.67;;;;;;;;5067517;28;8881;-68
2022/12/03 21:40:08;;;;;;;;;50.67;42.33;;;;;;;;5067501;28;8813;-68
2022/12/03 21:42:34;;;;;;;;;51.00;43.33;;;;;;;;5067905;28;8831;-68
2022/12/03 21:44:59;;;;;;;;;50.67;43.67;;;;;;;;5067643;28;8824;-68
2022/12/03 21:47:24;;;;;;;;;47.00;42.33;;;;;;;;5067841;28;8798;-68
2022/12/03 21:49:50;;;;;;;;;48.33;39.00;;;;;;;;5044632;28;8848;-68
2022/12/03 21:52:15;;;;;;;;;44.67;41.00;;;;;;;;5066055;28;8832;-69
2022/12/03 21:54:40;;;;;;;;;45.00;39.33;;;;;;;;5067472;28;8792;-69
2022/12/03 21:57:05;;;;;;;;;41.67;38.33;;;;;;;;5067690;28;8850;-69
2022/12/03 21:59:31;;;;;;;;;43.33;37.67;;;;;;;;5066991;28;8810;-69
2022/12/03 22:01:56;;;;;;;;;43.67;39.00;;;;;;;;5065575;28;8819;-69
2022/12/03 22:04:21;;;;;;;;;45.00;38.00;;;;;;;;5067476;28;8944;-69
2022/12/03 22:06:46;;;;;;;;;47.67;40.67;;;;;;;;5067599;28;8848;-68
2022/12/03 22:09:12;;;;;;;;;39.67;36.67;;;;;;;;5049356;28;8804;-68
2022/12/03 22:11:37;;;;;;;;;43.00;35.00;;;;;;;;5067354;28;8786;-68
2022/12/03 22:14:03;;;;;;;;;37.67;35.67;;;;;;;;5066924;28;8804;-68
2022/12/03 22:16:29;;;;;;;;;33.00;29.67;;;;;;;;5067150;28;8836;-68
2022/12/03 22:18:54;;;;;;;;;30.33;28.67;;;;;;;;5049279;28;8875;-68
2022/12/03 22:21:20;;;;;;;;;23.00;19.25;;;;;;;;5049205;28;8804;-67
2022/12/03 22:23:45;;;;;;;;;20.00;18.00;;;;;;;;5071961;28;8804;-69
2022/12/03 22:26:12;;;;;;;;;28.33;23.33;;;;;;;;5068326;28;8828;-67
2022/12/03 22:28:41;;;;;;;;;31.00;24.33;;;;;;;;5070849;28;8796;-68
2022/12/03 22:31:07;;;;;;;;;23.25;18.25;;;;;;;;5052666;28;11593;-70
2022/12/03 22:33:33;;;;;;;;;22.25;20.00;;;;;;;;5053688;28;11501;-70
2022/12/03 22:35:59;;;;;;;;;27.00;24.00;;;;;;;;5053662;28;11499;-70
2022/12/03 22:38:25;;;;;;;;;22.25;17.75;;;;;;;;5071919;28;8776;-70
2022/12/03 22:40:51;;;;;;;;;28.25;21.75;;;;;;;;5071848;28;11502;-70
2022/12/03 22:43:17;;;;;;;;;17.75;15.75;;;;;;;;5071855;28;8823;-70
2022/12/03 22:45:42;;;;;;;;;23.50;19.25;;;;;;;;5071807;28;8832;-70
2022/12/03 22:48:07;;;;;;;;;20.50;19.50;;;;;;;;5071741;28;8788;-70
2022/12/03 22:50:32;;;;;;;;;21.50;20.75;;;;;;;;5071585;28;8800;-70
2022/12/03 22:52:58;;;;;;;;;26.00;22.25;;;;;;;;5071730;28;8776;-70
2022/12/03 22:55:23;;;;;;;;;19.50;19.50;;;;;;;;5071710;28;9004;-70
2022/12/03 22:57:48;;;;;;;;;20.00;20.00;;;;;;;;5071546;28;8792;-70
2022/12/03 23:00:14;;;;;;;;;17.00;16.00;;;;;;;;5071792;28;8879;-70
2022/12/03 23:02:39;;;;;;;;;10.25;7.50;;;;;;;;5055618;28;8917;-71
2022/12/03 23:05:05;;;;;;;;;10.50;9.25;;;;;;;;5073736;28;8826;-71
2022/12/03 23:07:30;;;;;;;;;7.75;6.75;;;;;;;;5071858;28;8784;-70
2022/12/03 23:09:55;;;;;;;;;16.00;10.50;;;;;;;;5071611;28;8958;-70
2022/12/03 23:12:21;;;;;;;;;9.75;9.75;;;;;;;;5071513;28;9515;-70
2022/12/03 23:14:46;;;;;;;;;5.75;3.50;;;;;;;;5071575;28;8812;-71
2022/12/03 23:17:11;;;;;;;;;2.00;2.00;;;;;;;;5070924;28;8828;-69
2022/12/03 23:19:37;;;;;;;;;4.00;1.50;;;;;;;;5071932;28;8788;-71
2022/12/03 23:22:02;;;;;;;;;1.00;1.00;;;;;;;;5053259;28;8827;-71
2022/12/03 23:24:28;;;;;;;;;2.00;2.00;;;;;;;;5071408;28;8904;-70
2022/12/03 23:26:53;;;;;;;;;4.50;2.00;;;;;;;;5071112;28;8800;-70
2022/12/03 23:29:19;;;;;;;;;6.00;5.00;;;;;;;;5071348;28;8912;-70
2022/12/03 23:31:44;;;;;;;;;10.00;6.25;;;;;;;;5071235;28;9588;-70
2022/12/03 23:34:09;;;;;;;;;12.25;9.00;;;;;;;;5053046;28;8955;-70
2022/12/03 23:36:34;;;;;;;;;16.75;14.75;;;;;;;;5071003;28;8854;-70
2022/12/03 23:39:00;;;;;;;;;15.00;15.00;;;;;;;;5070908;28;9554;-70
2022/12/03 23:41:25;;;;;;;;;16.00;12.50;;;;;;;;5070952;28;8873;-70
2022/12/03 23:43:51;;;;;;;;;14.75;14.50;;;;;;;;5070945;28;8792;-71
2022/12/03 23:46:21;;;;;;;;;15.25;12.00;;;;;;;;5070763;28;8812;-70
2022/12/03 23:48:46;;;;;;;;;14.50;11.25;;;;;;;;5070732;28;8891;-70
2022/12/03 23:51:13;;;;;;;;;18.25;15.25;;;;;;;;5070668;28;11498;-70